Derry, United Kingdom
Current Conditions -  °F | °C
As of 8:50 PM on Sunday 25 Jan 2015 (Local Time) from EGAE Reporting Station
Light Rain Light Rain  
Wind Chill:   Ceiling: 1400
Heat Index:   Visibility: 6mi
Dew Point:   Wind: 10mph
Humidity: 93%   Direction: 230°SW
Pressure: 30.03"   Gusts: NA
Location:  55°N, 7.31°W
Report Text: EGAE 252050Z 23009KT 9000 -RADZ BKN014 09/08 Q1017
Loading
Personal Weather Stations






























Interactive Weather Map New forecast layout! Learn more

10-Day Weather Forecast

Advertisements
Track Severe Weather on mobile